Time;durP1;ratioP1;P1;durP2;ratioP2;P2;SDS_P1;SDS_P2;PMS_P1;PMS_P2;Temp;Humidity;BMP_temperature;BMP_pressure;BME280_temperature;BME280_humidity;BME280_pressure;Samples;Min_cycle;Max_cycle;Signal;HPM_P1;HPM_P2
2023/09/25 00:00:31;;;;;;;7.60;5.07;;;11.30;99.90;;;;;;5015864;28;20440;-78
2023/09/25 00:03:06;;;;;;;6.50;5.00;;;11.30;99.90;;;;;;5026081;28;21291;-78
2023/09/25 00:05:43;;;;;;;5.23;4.73;;;11.30;99.90;;;;;;5028637;28;20469;-79
2023/09/25 00:11:22;;;;;;;8.23;4.90;;;11.20;99.90;;;;;;5032129;28;20447;-79
2023/09/25 00:14:11;;;;;;;5.37;4.90;;;11.10;99.90;;;;;;5015739;28;20455;-77
2023/09/25 00:20:19;;;;;;;5.70;5.13;;;11.00;99.90;;;;;;5016360;28;20454;-77
2023/09/25 00:22:59;;;;;;;5.63;5.13;;;11.00;99.90;;;;;;5032785;28;20464;-77
2023/09/25 00:25:31;;;;;;;5.63;5.03;;;11.00;99.90;;;;;;5030589;28;20501;-77
2023/09/25 00:28:08;;;;;;;5.80;5.13;;;10.90;99.90;;;;;;5026631;28;20440;-76
2023/09/25 00:30:38;;;;;;;6.30;5.63;;;10.90;99.90;;;;;;5044298;28;20446;-78
2023/09/25 00:33:20;;;;;;;6.17;5.57;;;10.80;99.90;;;;;;5023700;28;20475;-79
2023/09/25 00:35:56;;;;;;;6.00;5.40;;;10.80;99.90;;;;;;5031518;28;20467;-77
2023/09/25 00:38:41;;;;;;;5.83;5.33;;;10.80;99.90;;;;;;5023844;28;20451;-78
2023/09/25 00:41:20;;;;;;;6.33;5.73;;;10.80;99.90;;;;;;5019880;28;20479;-78
2023/09/25 00:43:54;;;;;;;6.10;5.50;;;10.80;99.90;;;;;;5017503;28;20462;-78
2023/09/25 00:46:41;;;;;;;6.73;5.00;;;10.70;99.90;;;;;;5017623;28;20566;-78
2023/09/25 00:49:19;;;;;;;6.80;5.30;;;10.70;99.90;;;;;;5021036;28;20448;-77
2023/09/25 00:52:04;;;;;;;6.60;5.10;;;10.70;99.90;;;;;;5022383;28;20713;-78
2023/09/25 00:54:45;;;;;;;7.83;5.40;;;10.60;99.90;;;;;;5021352;28;20478;-78
2023/09/25 00:57:29;;;;;;;5.87;5.27;;;10.40;99.90;;;;;;5021231;28;20550;-77
2023/09/25 01:00:02;;;;;;;6.43;5.80;;;10.40;99.90;;;;;;5024302;28;20455;-78
2023/09/25 01:02:44;;;;;;;5.60;5.10;;;10.40;99.90;;;;;;5024294;28;20456;-78
2023/09/25 01:05:16;;;;;;;6.13;4.80;;;10.40;99.90;;;;;;5023323;28;20533;-78
2023/09/25 01:10:44;;;;;;;6.00;5.40;;;10.40;99.90;;;;;;5021093;28;20427;-78
2023/09/25 01:13:18;;;;;;;6.10;5.47;;;10.30;99.90;;;;;;5020838;28;20471;-78
2023/09/25 01:15:56;;;;;;;5.83;5.20;;;10.30;99.90;;;;;;5020295;28;20482;-76
2023/09/25 01:18:31;;;;;;;6.17;5.50;;;10.20;99.90;;;;;;5021978;28;20523;-77
2023/09/25 01:21:11;;;;;;;9.33;5.80;;;10.20;99.90;;;;;;5030909;28;20449;-78
2023/09/25 01:26:59;;;;;;;5.90;4.57;;;10.10;99.90;;;;;;5001866;28;20463;-78
2023/09/25 01:29:38;;;;;;;6.10;5.00;;;10.10;99.90;;;;;;5017891;28;20471;-79
2023/09/25 01:32:14;;;;;;;6.80;5.53;;;10.00;99.90;;;;;;5021133;28;20987;-78
2023/09/25 01:35:04;;;;;;;5.63;5.10;;;10.00;99.90;;;;;;5025372;28;21053;-78
2023/09/25 01:37:49;;;;;;;6.17;4.90;;;10.00;99.90;;;;;;5024034;28;20505;-78
2023/09/25 01:40:36;;;;;;;7.67;5.07;;;10.00;99.90;;;;;;5024174;28;20844;-77
2023/09/25 01:46:21;;;;;;;7.23;4.83;;;10.00;99.90;;;;;;5023051;28;20582;-79
2023/09/25 01:49:12;;;;;;;6.00;5.27;;;10.10;99.90;;;;;;5024515;28;20443;-77
2023/09/25 01:52:07;;;;;;;7.40;5.33;;;9.90;99.90;;;;;;5018474;28;20447;-80
2023/09/25 01:57:52;;;;;;;7.90;5.63;;;9.80;99.90;;;;;;5024545;28;20447;-76
2023/09/25 02:03:23;;;;;;;5.27;4.77;;;9.80;99.90;;;;;;5024395;28;20431;-77
2023/09/25 02:06:04;;;;;;;6.77;5.03;;;9.80;99.90;;;;;;5021512;28;20519;-77
2023/09/25 02:08:55;;;;;;;5.60;5.10;;;9.80;99.90;;;;;;5024144;28;20947;-77
2023/09/25 02:11:33;;;;;;;7.60;5.80;;;9.80;99.90;;;;;;5024997;28;20452;-77
2023/09/25 02:14:16;;;;;;;5.90;5.37;;;9.80;99.90;;;;;;5024573;28;20823;-78
2023/09/25 02:17:08;;;;;;;5.67;4.83;;;9.80;99.90;;;;;;5024173;28;20458;-77
2023/09/25 02:19:52;;;;;;;6.60;5.43;;;9.80;99.90;;;;;;5023569;28;20913;-77
2023/09/25 02:22:30;;;;;;;6.20;5.00;;;9.80;99.90;;;;;;5023557;28;20483;-77
2023/09/25 02:25:09;;;;;;;5.90;5.30;;;9.70;99.90;;;;;;5022934;28;20463;-76
2023/09/25 02:27:52;;;;;;;8.10;5.67;;;9.70;99.90;;;;;;5021919;28;20455;-76
2023/09/25 02:30:33;;;;;;;5.97;5.27;;;9.70;99.90;;;;;;5015410;28;20440;-79
2023/09/25 02:33:16;;;;;;;6.57;5.40;;;9.70;99.90;;;;;;5019926;28;20972;-76
2023/09/25 02:35:51;;;;;;;6.47;5.80;;;9.70;99.90;;;;;;5018691;28;20847;-77
2023/09/25 02:38:20;;;;;;;5.50;5.00;;;9.60;99.90;;;;;;5017725;28;20649;-77
2023/09/25 02:40:55;;;;;;;6.80;5.57;;;9.60;99.90;;;;;;5019197;28;20451;-78
2023/09/25 02:43:40;;;;;;;6.10;5.50;;;9.60;99.90;;;;;;5018651;28;20521;-77
2023/09/25 02:46:34;;;;;;;6.57;5.30;;;9.50;99.90;;;;;;5019640;28;20535;-78
2023/09/25 02:49:10;;;;;;;9.20;6.37;;;9.50;99.90;;;;;;5019677;28;20428;-77
2023/09/25 02:51:53;;;;;;;6.77;6.00;;;9.50;99.90;;;;;;5019439;28;20534;-78
2023/09/25 02:54:33;;;;;;;5.63;4.97;;;9.50;99.90;;;;;;5022023;28;20443;-78
2023/09/25 02:57:11;;;;;;;5.00;4.50;;;9.50;99.90;;;;;;5019888;28;20479;-77
2023/09/25 03:00:08;;;;;;;4.63;4.30;;;9.50;99.90;;;;;;5019270;28;20431;-76
2023/09/25 03:02:49;;;;;;;6.07;4.00;;;9.50;99.90;;;;;;5006990;28;20511;-77
2023/09/25 03:05:31;;;;;;;4.90;4.40;;;9.40;99.90;;;;;;5025509;28;20529;-76
2023/09/25 03:08:11;;;;;;;5.70;4.70;;;9.40;99.90;;;;;;5023510;28;20482;-78
2023/09/25 03:10:53;;;;;;;6.27;4.73;;;9.40;99.90;;;;;;5024230;28;20947;-78
2023/09/25 03:13:38;;;;;;;4.87;4.37;;;9.40;99.90;;;;;;5022082;28;20451;-77
2023/09/25 03:16:31;;;;;;;6.30;5.70;;;9.40;99.90;;;;;;5022525;28;20471;-77
2023/09/25 03:19:10;;;;;;;5.70;5.10;;;9.40;99.90;;;;;;5024223;28;20452;-76
2023/09/25 03:21:49;;;;;;;6.50;5.03;;;9.40;99.90;;;;;;5023063;28;20443;-77
2023/09/25 03:24:37;;;;;;;8.17;5.40;;;9.30;99.90;;;;;;5022068;28;20482;-76
2023/09/25 03:27:10;;;;;;;7.30;4.80;;;9.30;99.90;;;;;;5022023;28;20470;-78
2023/09/25 03:29:54;;;;;;;6.83;5.47;;;9.30;99.90;;;;;;5023752;28;20451;-79
2023/09/25 03:32:32;;;;;;;5.90;4.67;;;9.30;99.90;;;;;;5023375;28;20517;-77
2023/09/25 03:35:13;;;;;;;5.40;4.80;;;9.20;99.90;;;;;;5023781;28;20841;-78
2023/09/25 03:37:53;;;;;;;5.67;4.50;;;9.20;99.90;;;;;;5022944;28;20462;-77
2023/09/25 03:40:31;;;;;;;6.93;4.93;;;9.10;99.90;;;;;;5023507;28;20459;-77
2023/09/25 03:43:05;;;;;;;5.03;4.63;;;9.20;99.90;;;;;;5025910;28;20474;-78
2023/09/25 03:45:40;;;;;;;5.10;4.60;;;9.20;99.90;;;;;;5027567;28;20455;-78
2023/09/25 03:50:53;;;;;;;5.37;4.80;;;9.10;99.90;;;;;;5021358;28;20454;-78
2023/09/25 03:53:49;;;;;;;5.70;4.47;;;9.10;99.90;;;;;;5024119;28;20442;-77
2023/09/25 03:56:25;;;;;;;5.50;5.00;;;9.10;99.90;;;;;;5023549;28;20471;-77
2023/09/25 03:58:52;;;;;;;4.87;4.47;;;9.30;99.90;;;;;;5023760;28;20894;-78
2023/09/25 04:01:19;;;;;;;6.10;4.50;;;9.10;99.90;;;;;;5015068;28;20435;-77
2023/09/25 04:03:47;;;;;;;5.63;4.60;;;9.10;99.90;;;;;;5015298;28;20995;-78
2023/09/25 04:06:15;;;;;;;4.80;4.30;;;9.10;99.90;;;;;;5014810;28;20531;-78
2023/09/25 04:08:41;;;;;;;6.90;6.20;;;9.10;99.90;;;;;;5014737;28;20439;-78
2023/09/25 04:11:10;;;;;;;6.00;5.50;;;9.10;99.90;;;;;;5014682;28;20447;-77
2023/09/25 04:13:36;;;;;;;7.47;6.60;;;9.00;99.90;;;;;;5014164;28;20770;-79
2023/09/25 04:16:03;;;;;;;7.63;6.70;;;9.00;99.90;;;;;;5015295;28;20468;-79
2023/09/25 04:18:30;;;;;;;5.13;4.50;;;9.00;99.90;;;;;;5014757;28;20451;-77
2023/09/25 04:21:02;;;;;;;5.47;4.40;;;9.00;99.90;;;;;;5015003;28;20439;-78
2023/09/25 04:23:31;;;;;;;5.00;4.60;;;9.00;99.90;;;;;;5015255;28;20475;-78
2023/09/25 04:26:00;;;;;;;4.83;4.00;;;8.90;99.90;;;;;;5014582;28;20486;-77
2023/09/25 04:28:29;;;;;;;5.50;4.57;;;8.90;99.90;;;;;;5014635;28;20443;-77
2023/09/25 04:30:57;;;;;;;5.13;4.37;;;8.90;99.90;;;;;;5014714;28;20494;-78
2023/09/25 04:33:24;;;;;;;5.93;5.43;;;8.90;99.90;;;;;;5016602;28;20439;-79
2023/09/25 04:35:52;;;;;;;4.97;4.30;;;8.90;99.90;;;;;;5014476;28;20471;-79
2023/09/25 04:38:19;;;;;;;6.93;4.80;;;8.90;99.90;;;;;;5014421;28;20514;-77
2023/09/25 04:40:49;;;;;;;5.63;4.80;;;8.80;99.90;;;;;;5014605;28;20444;-79
2023/09/25 04:43:17;;;;;;;14.23;12.73;;;8.80;99.90;;;;;;5014312;28;20577;-78
2023/09/25 04:45:44;;;;;;;8.50;7.60;;;8.80;99.90;;;;;;5019054;28;20463;-79
2023/09/25 04:48:10;;;;;;;6.87;5.13;;;8.80;99.90;;;;;;5031748;28;20451;-77
2023/09/25 04:50:37;;;;;;;4.50;4.07;;;8.80;99.90;;;;;;5031847;28;20447;-77
2023/09/25 04:53:06;;;;;;;6.20;5.60;;;8.80;99.90;;;;;;5028859;28;20444;-78
2023/09/25 04:55:33;;;;;;;7.03;6.33;;;8.80;99.90;;;;;;5021890;28;20475;-78
2023/09/25 04:58:02;;;;;;;9.90;5.93;;;8.80;99.90;;;;;;5021641;28;20444;-78
2023/09/25 05:00:29;;;;;;;6.83;5.43;;;8.70;99.90;;;;;;5022036;28;20452;-77
2023/09/25 05:02:57;;;;;;;5.93;5.33;;;8.80;99.90;;;;;;5024825;28;20454;-77
2023/09/25 05:05:24;;;;;;;5.90;5.30;;;8.70;99.90;;;;;;5027276;28;20531;-79
2023/09/25 05:07:52;;;;;;;5.03;4.63;;;8.70;99.90;;;;;;5022732;28;20948;-78
2023/09/25 05:10:21;;;;;;;5.03;4.63;;;8.70;99.90;;;;;;5022669;28;20443;-78
2023/09/25 05:12:48;;;;;;;6.43;5.20;;;8.70;99.90;;;;;;5014418;28;20444;-77
2023/09/25 05:15:17;;;;;;;6.90;5.90;;;8.60;99.90;;;;;;5015853;28;20868;-80
2023/09/25 05:17:45;;;;;;;5.73;5.23;;;8.60;99.90;;;;;;5015381;28;20447;-79
2023/09/25 05:20:15;;;;;;;6.70;5.27;;;8.70;99.90;;;;;;5016199;28;20451;-79
2023/09/25 05:22:44;;;;;;;6.40;5.73;;;8.80;99.90;;;;;;5015945;28;20432;-79
2023/09/25 05:25:12;;;;;;;5.57;5.07;;;8.90;99.90;;;;;;5014775;28;20467;-79
2023/09/25 05:27:41;;;;;;;7.77;4.93;;;8.90;99.90;;;;;;5015854;28;20443;-80
2023/09/25 05:30:10;;;;;;;5.40;4.90;;;8.90;99.90;;;;;;5016514;28;20475;-80
2023/09/25 05:32:39;;;;;;;5.90;5.07;;;9.00;99.90;;;;;;5015826;28;20448;-79
2023/09/25 05:35:06;;;;;;;7.20;6.07;;;9.00;99.90;;;;;;5016136;28;20642;-82
2023/09/25 05:37:33;;;;;;;6.00;5.50;;;9.00;99.90;;;;;;5016144;28;20448;-80
2023/09/25 05:40:00;;;;;;;7.03;6.33;;;8.90;99.90;;;;;;5015181;28;20448;-79
2023/09/25 05:42:27;;;;;;;6.60;5.57;;;9.00;99.90;;;;;;5015420;28;20447;-80
2023/09/25 05:44:54;;;;;;;6.10;5.50;;;9.00;99.90;;;;;;5014713;28;20984;-78
2023/09/25 05:47:20;;;;;;;6.30;5.70;;;9.00;99.90;;;;;;5015895;28;20885;-78
2023/09/25 05:49:48;;;;;;;6.53;5.93;;;9.10;99.90;;;;;;5015390;28;20447;-80
2023/09/25 05:52:15;;;;;;;8.03;5.40;;;9.20;99.90;;;;;;5015089;28;20455;-78
2023/09/25 05:54:42;;;;;;;11.17;5.60;;;9.20;99.90;;;;;;5020974;28;20459;-79
2023/09/25 05:57:09;;;;;;;5.90;5.30;;;9.20;99.90;;;;;;5028873;28;20454;-78
2023/09/25 05:59:36;;;;;;;5.30;4.90;;;9.30;99.90;;;;;;5024679;28;20524;-78
2023/09/25 06:02:03;;;;;;;7.10;6.13;;;9.30;99.90;;;;;;5025818;28;20456;-78
2023/09/25 06:04:30;;;;;;;5.43;4.93;;;9.30;99.90;;;;;;5028206;28;20478;-80
2023/09/25 06:06:58;;;;;;;5.93;5.37;;;9.30;99.90;;;;;;5020520;28;20470;-78
2023/09/25 06:09:25;;;;;;;5.20;4.70;;;9.30;99.90;;;;;;5016844;28;20459;-79
2023/09/25 06:11:51;;;;;;;7.63;6.83;;;9.70;99.90;;;;;;5017538;28;20444;-79
2023/09/25 06:14:18;;;;;;;5.63;5.20;;;9.70;99.90;;;;;;5013422;28;20948;-78
2023/09/25 06:16:47;;;;;;;5.00;4.47;;;9.70;99.90;;;;;;5013785;28;20952;-78
2023/09/25 06:19:14;;;;;;;6.07;5.07;;;9.80;99.90;;;;;;5014252;28;20874;-79
2023/09/25 06:21:41;;;;;;;4.90;4.40;;;9.80;99.90;;;;;;5019112;28;20467;-77
2023/09/25 06:24:09;;;;;;;6.60;5.80;;;9.80;99.90;;;;;;5014099;28;20483;-78
2023/09/25 06:26:39;;;;;;;5.60;5.00;;;9.80;99.90;;;;;;5013271;28;20541;-80
2023/09/25 06:29:06;;;;;;;6.63;6.00;;;9.80;99.90;;;;;;5015080;28;20444;-80
2023/09/25 06:31:33;;;;;;;8.90;5.53;;;9.90;99.90;;;;;;5013730;28;20439;-80
2023/09/25 06:33:59;;;;;;;8.67;5.30;;;9.90;99.90;;;;;;5013520;28;20443;-78
2023/09/25 06:36:26;;;;;;;5.80;5.30;;;9.90;99.90;;;;;;5019125;28;20483;-78
2023/09/25 06:38:53;;;;;;;6.93;6.17;;;9.90;99.90;;;;;;5014379;28;20447;-80
2023/09/25 06:41:21;;;;;;;5.90;5.40;;;10.00;99.90;;;;;;5011070;28;20482;-79
2023/09/25 06:43:48;;;;;;;7.23;6.53;;;10.10;99.90;;;;;;5009590;28;20549;-79
2023/09/25 06:46:15;;;;;;;6.77;6.17;;;10.10;99.90;;;;;;5013912;28;20463;-79
2023/09/25 06:48:42;;;;;;;7.43;6.67;;;10.20;99.90;;;;;;5013731;28;20440;-77
2023/09/25 06:51:09;;;;;;;8.90;6.87;;;10.40;99.90;;;;;;5020493;28;20451;-77
2023/09/25 06:53:35;;;;;;;7.00;6.30;;;10.40;99.90;;;;;;5013820;28;20439;-81
2023/09/25 06:56:02;;;;;;;8.10;6.10;;;10.50;99.90;;;;;;5014446;28;20459;-78
2023/09/25 06:58:30;;;;;;;8.60;6.20;;;10.50;99.90;;;;;;5013966;28;20826;-78
2023/09/25 07:00:57;;;;;;;7.53;6.17;;;10.60;99.90;;;;;;5015533;28;20455;-79
2023/09/25 07:03:23;;;;;;;13.53;6.30;;;10.70;99.90;;;;;;5015507;28;20435;-81
2023/09/25 07:05:50;;;;;;;6.83;6.20;;;10.80;99.90;;;;;;5015398;28;20474;-79
2023/09/25 07:08:18;;;;;;;7.40;6.20;;;10.80;99.90;;;;;;5021013;28;20439;-79
2023/09/25 07:10:46;;;;;;;7.07;6.47;;;11.00;99.90;;;;;;5015354;28;20446;-81
2023/09/25 07:13:13;;;;;;;7.37;6.63;;;11.20;99.90;;;;;;5019289;28;20443;-79
2023/09/25 07:15:41;;;;;;;12.47;6.87;;;11.30;99.90;;;;;;5018666;28;20460;-79
2023/09/25 07:18:08;;;;;;;7.20;6.40;;;11.30;99.90;;;;;;5022650;28;20439;-79
2023/09/25 07:20:35;;;;;;;8.87;5.80;;;11.50;99.90;;;;;;5023999;28;20510;-80
2023/09/25 07:23:01;;;;;;;8.20;6.13;;;11.60;99.90;;;;;;5015719;28;20448;-79
2023/09/25 07:25:28;;;;;;;6.97;6.27;;;11.70;99.90;;;;;;5018574;28;21106;-76
2023/09/25 07:27:55;;;;;;;9.43;6.60;;;12.10;99.90;;;;;;5015286;28;20476;-78
2023/09/25 07:30:23;;;;;;;5.20;4.80;;;12.10;99.90;;;;;;5017610;28;20443;-80
2023/09/25 07:32:51;;;;;;;5.87;5.27;;;12.10;99.90;;;;;;5017117;28;20485;-80
2023/09/25 07:35:18;;;;;;;6.67;6.13;;;12.30;99.90;;;;;;5014670;28;20452;-79
2023/09/25 07:37:47;;;;;;;6.07;5.57;;;12.60;99.90;;;;;;5016368;28;20486;-79
2023/09/25 07:40:14;;;;;;;5.73;5.23;;;12.90;99.90;;;;;;5014417;28;21000;-81
2023/09/25 07:42:51;;;;;;;6.37;5.40;;;13.00;99.90;;;;;;5011853;28;20970;-80
2023/09/25 07:45:22;;;;;;;5.67;5.20;;;13.20;99.90;;;;;;5012598;28;20479;-79
2023/09/25 07:47:52;;;;;;;6.17;5.10;;;13.30;99.90;;;;;;5006343;28;20440;-80
2023/09/25 07:50:19;;;;;;;6.37;5.00;;;13.60;99.90;;;;;;5015619;28;20817;-79
2023/09/25 07:52:54;;;;;;;5.00;4.53;;;13.80;99.90;;;;;;5017300;28;20936;-83
2023/09/25 07:55:21;;;;;;;5.10;4.30;;;14.00;99.90;;;;;;5008405;28;20862;-77
2023/09/25 07:57:49;;;;;;;5.93;4.10;;;14.30;99.90;;;;;;5013977;28;20455;-84
2023/09/25 08:00:22;;;;;;;6.90;4.60;;;14.40;99.90;;;;;;5024130;28;20444;-80
2023/09/25 08:02:49;;;;;;;4.60;4.20;;;14.60;99.90;;;;;;5027222;28;20549;-79
2023/09/25 08:05:18;;;;;;;6.37;4.87;;;14.90;99.90;;;;;;5025249;28;20486;-80
2023/09/25 08:07:45;;;;;;;5.17;4.33;;;15.00;99.90;;;;;;5024716;28;20447;-80
2023/09/25 08:10:12;;;;;;;6.37;5.10;;;15.10;99.90;;;;;;5024184;28;20513;-80
2023/09/25 08:12:39;;;;;;;4.70;4.30;;;15.30;99.90;;;;;;5028215;28;20747;-81
2023/09/25 08:15:07;;;;;;;4.07;3.77;;;15.60;99.90;;;;;;5028258;28;20455;-80
2023/09/25 08:17:34;;;;;;;7.60;4.00;;;15.90;99.90;;;;;;5025531;28;20455;-78
2023/09/25 08:20:01;;;;;;;3.77;3.47;;;16.20;99.90;;;;;;5025549;28;20448;-79
2023/09/25 08:22:31;;;;;;;4.87;4.37;;;16.40;99.90;;;;;;5027150;28;20440;-81
2023/09/25 08:24:57;;;;;;;4.50;4.10;;;16.60;99.90;;;;;;5038906;28;20615;-82
2023/09/25 08:27:24;;;;;;;4.00;3.70;;;16.50;99.90;;;;;;5036019;28;20451;-82
2023/09/25 08:29:51;;;;;;;4.60;3.63;;;16.80;99.90;;;;;;5020123;28;20486;-81
2023/09/25 08:32:17;;;;;;;5.80;3.77;;;16.90;99.90;;;;;;5020314;28;20447;-81
2023/09/25 08:34:44;;;;;;;5.20;4.40;;;16.60;99.90;;;;;;5026229;28;20458;-80
2023/09/25 08:37:11;;;;;;;3.80;3.60;;;16.70;99.90;;;;;;5023536;28;20448;-81
2023/09/25 08:39:39;;;;;;;3.20;3.00;;;16.60;99.90;;;;;;5028753;28;20660;-79
2023/09/25 08:42:06;;;;;;;4.23;3.83;;;16.90;99.90;;;;;;5024610;28;20451;-79
2023/09/25 08:44:33;;;;;;;4.00;3.60;;;16.90;99.90;;;;;;5018937;28;20487;-79
2023/09/25 08:47:00;;;;;;;4.73;4.10;;;17.30;99.90;;;;;;5018923;28;20444;-80
2023/09/25 08:49:27;;;;;;;4.07;3.73;;;17.30;99.90;;;;;;5019739;28;20477;-80
2023/09/25 08:51:54;;;;;;;4.00;3.70;;;17.70;99.90;;;;;;5020815;28;20933;-82
2023/09/25 08:54:22;;;;;;;3.87;3.57;;;17.40;99.90;;;;;;5021046;28;20447;-80
2023/09/25 08:56:50;;;;;;;5.23;3.80;;;17.70;99.90;;;;;;5021775;28;20523;-78
2023/09/25 08:59:17;;;;;;;3.80;3.50;;;18.40;99.90;;;;;;5020078;28;20523;-80
2023/09/25 09:01:44;;;;;;;3.23;2.93;;;18.70;99.90;;;;;;5020405;28;20444;-80
2023/09/25 09:04:11;;;;;;;3.67;3.30;;;18.80;99.90;;;;;;5020326;28;20440;-80
2023/09/25 09:06:38;;;;;;;4.07;3.50;;;19.10;99.90;;;;;;5019679;28;20450;-80
2023/09/25 09:09:07;;;;;;;3.90;3.03;;;19.20;99.90;;;;;;5020472;28;20478;-81
2023/09/25 09:11:35;;;;;;;3.50;3.20;;;19.40;99.90;;;;;;5003941;28;20463;-82
2023/09/25 09:14:03;;;;;;;4.07;3.30;;;19.40;99.90;;;;;;5019523;28;20440;-79
2023/09/25 09:16:30;;;;;;;4.67;3.60;;;19.70;99.90;;;;;;5020024;28;20451;-82
2023/09/25 09:19:06;;;;;;;4.70;3.00;;;20.20;99.90;;;;;;5018664;28;20964;-81
2023/09/25 09:21:33;;;;;;;3.90;2.70;;;20.40;99.90;;;;;;5003066;28;20447;-80
2023/09/25 09:24:00;;;;;;;3.20;3.00;;;20.80;99.90;;;;;;5017959;28;20439;-81
2023/09/25 09:26:27;;;;;;;3.00;2.57;;;20.90;99.90;;;;;;5019129;28;20491;-80
2023/09/25 09:28:54;;;;;;;3.03;2.70;;;21.00;99.90;;;;;;5016898;28;20447;-79
2023/09/25 09:31:22;;;;;;;3.20;2.90;;;21.40;99.90;;;;;;5013417;28;21171;-79
2023/09/25 09:33:49;;;;;;;3.13;2.77;;;21.60;99.90;;;;;;5013345;28;20439;-79
2023/09/25 09:36:19;;;;;;;3.67;3.27;;;21.70;99.90;;;;;;5013078;28;20486;-78
2023/09/25 09:38:47;;;;;;;2.83;2.63;;;21.80;99.90;;;;;;5013802;28;20434;-78
2023/09/25 09:41:16;;;;;;;2.87;2.67;;;21.80;99.90;;;;;;5012982;28;20455;-79
2023/09/25 09:43:43;;;;;;;2.80;2.60;;;22.00;99.90;;;;;;5013209;28;20921;-79
2023/09/25 09:46:12;;;;;;;3.73;2.70;;;22.20;99.90;;;;;;5012494;28;20595;-78
2023/09/25 09:48:43;;;;;;;3.43;2.83;;;22.50;99.90;;;;;;5013055;28;20451;-78
2023/09/25 09:51:11;;;;;;;3.83;2.80;;;22.40;99.90;;;;;;5013271;28;20431;-79
2023/09/25 09:53:39;;;;;;;2.90;2.70;;;22.30;99.90;;;;;;5012204;28;20786;-78
2023/09/25 09:56:06;;;;;;;3.33;2.27;;;21.70;99.90;;;;;;5012359;28;20467;-79
2023/09/25 09:58:34;;;;;;;3.27;2.97;;;22.30;99.90;;;;;;5012763;28;20443;-78
2023/09/25 10:01:02;;;;;;;3.83;2.90;;;21.70;99.90;;;;;;5012599;28;20945;-79
2023/09/25 10:03:31;;;;;;;2.77;2.43;;;21.40;99.90;;;;;;5013313;28;20450;-79
2023/09/25 10:06:00;;;;;;;2.80;2.60;;;22.40;99.90;;;;;;5013096;28;20486;-78
2023/09/25 10:08:27;;;;;;;3.00;2.70;;;22.10;99.90;;;;;;5013394;28;20945;-79
2023/09/25 10:11:14;;;;;;;4.33;3.00;;;21.90;99.90;;;;;;5012367;28;20797;-79
2023/09/25 10:13:42;;;;;;;5.60;2.97;;;22.60;99.90;;;;;;4997175;28;20470;-79
2023/09/25 10:16:10;;;;;;;3.43;2.70;;;22.90;99.90;;;;;;5023465;28;20466;-76
2023/09/25 10:18:36;;;;;;;3.90;2.77;;;23.00;99.90;;;;;;5019117;28;20448;-80
2023/09/25 10:21:08;;;;;;;4.87;3.30;;;23.20;99.90;;;;;;5011859;28;20939;-77
2023/09/25 10:23:36;;;;;;;4.10;3.40;;;23.50;99.90;;;;;;5015697;28;20468;-78
2023/09/25 10:26:03;;;;;;;3.10;2.90;;;23.90;99.90;;;;;;5031577;28;20580;-78
2023/09/25 10:28:32;;;;;;;4.50;3.20;;;23.80;99.90;;;;;;5012835;28;21790;-78
2023/09/25 10:31:00;;;;;;;4.70;3.40;;;22.90;99.90;;;;;;5012164;28;20439;-78
2023/09/25 10:33:29;;;;;;;3.30;2.97;;;21.70;99.90;;;;;;5012839;28;20450;-78
2023/09/25 10:36:00;;;;;;;3.10;2.80;;;22.20;99.90;;;;;;5012147;28;20491;-79
2023/09/25 10:38:34;;;;;;;3.17;2.87;;;22.50;99.90;;;;;;5012427;28;20524;-78
2023/09/25 10:41:03;;;;;;;4.17;2.97;;;23.70;99.90;;;;;;5011480;28;20446;-79
2023/09/25 10:43:30;;;;;;;4.53;3.70;;;23.80;99.90;;;;;;5012061;28;20448;-78
2023/09/25 10:45:57;;;;;;;2.83;2.60;;;24.10;99.90;;;;;;5011852;28;20577;-79
2023/09/25 10:48:26;;;;;;;5.33;2.80;;;24.10;99.90;;;;;;5011789;28;20448;-79
2023/09/25 10:50:54;;;;;;;3.20;3.00;;;23.80;99.90;;;;;;5011582;28;20465;-79
2023/09/25 10:53:22;;;;;;;3.20;2.90;;;22.50;99.90;;;;;;5002583;28;20543;-79
2023/09/25 10:55:50;;;;;;;4.07;2.90;;;23.50;99.90;;;;;;4993885;28;20539;-78
2023/09/25 10:58:18;;;;;;;2.77;2.50;;;24.20;99.90;;;;;;5011818;28;20446;-79
2023/09/25 11:00:46;;;;;;;3.50;3.20;;;25.00;99.90;;;;;;5013160;28;20462;-80
2023/09/25 11:03:14;;;;;;;4.30;2.33;;;24.50;99.70;;;;;;5013080;28;20502;-81
2023/09/25 11:05:41;;;;;;;4.30;2.40;;;24.70;99.90;;;;;;5012102;28;20965;-79
2023/09/25 11:08:14;;;;;;;2.77;2.57;;;25.10;99.20;;;;;;5012473;28;20474;-80
2023/09/25 11:10:41;;;;;;;2.60;2.43;;;24.70;99.90;;;;;;5020800;28;20435;-80
2023/09/25 11:13:10;;;;;;;2.50;2.30;;;24.90;99.20;;;;;;5024854;28;20444;-80
2023/09/25 11:15:38;;;;;;;2.40;2.17;;;25.40;99.40;;;;;;5012844;28;20490;-79
2023/09/25 11:18:08;;;;;;;5.00;2.90;;;25.50;98.90;;;;;;5013600;28;20451;-80
2023/09/25 11:20:37;;;;;;;2.63;2.43;;;25.70;98.00;;;;;;5013196;28;20868;-79
2023/09/25 11:23:06;;;;;;;1.90;1.80;;;25.60;97.60;;;;;;5012393;28;20498;-79
2023/09/25 11:25:39;;;;;;;3.03;2.80;;;25.90;97.40;;;;;;5016091;28;20904;-78
2023/09/25 11:28:06;;;;;;;3.47;2.50;;;25.60;97.10;;;;;;5016817;28;20474;-79
2023/09/25 11:30:35;;;;;;;2.80;2.60;;;25.40;96.70;;;;;;5016367;28;20538;-78
2023/09/25 11:33:07;;;;;;;2.87;2.67;;;25.00;97.30;;;;;;5018080;28;20485;-80
2023/09/25 11:35:37;;;;;;;2.57;2.37;;;25.70;96.80;;;;;;5024115;28;20543;-84
2023/09/25 11:38:12;;;;;;;2.50;2.20;;;26.30;96.20;;;;;;5039261;28;20431;-81
2023/09/25 11:40:39;;;;;;;2.50;2.30;;;25.90;96.00;;;;;;5028406;28;20439;-80
2023/09/25 11:43:06;;;;;;;2.77;2.57;;;25.50;95.40;;;;;;5019133;28;20462;-78
2023/09/25 11:45:34;;;;;;;2.63;2.43;;;24.90;95.90;;;;;;5016374;28;20482;-81
2023/09/25 11:48:01;;;;;;;2.70;2.30;;;24.20;96.40;;;;;;5016207;28;20451;-77
2023/09/25 11:50:29;;;;;;;3.40;2.50;;;23.70;97.20;;;;;;5016791;28;20447;-80
2023/09/25 11:52:55;;;;;;;2.30;2.10;;;23.70;97.70;;;;;;5015948;28;20979;-78
2023/09/25 11:55:23;;;;;;;7.30;2.50;;;25.10;95.70;;;;;;5015873;28;20495;-79
2023/09/25 11:57:49;;;;;;;2.27;2.07;;;25.90;93.90;;;;;;5019699;28;20451;-80
2023/09/25 12:00:18;;;;;;;2.20;1.90;;;26.40;93.10;;;;;;5017581;28;20454;-80
2023/09/25 12:02:47;;;;;;;2.10;2.00;;;26.70;92.50;;;;;;5017403;28;20475;-81
2023/09/25 12:05:13;;;;;;;2.40;1.97;;;27.00;91.40;;;;;;5019479;28;20494;-80
2023/09/25 12:07:41;;;;;;;2.30;2.10;;;26.30;92.60;;;;;;5017518;28;20443;-79
2023/09/25 12:10:09;;;;;;;2.47;2.00;;;27.00;91.90;;;;;;5017535;28;20443;-79
2023/09/25 12:12:36;;;;;;;2.73;2.13;;;27.00;91.60;;;;;;5017587;28;20577;-80
2023/09/25 12:15:04;;;;;;;3.00;2.30;;;27.50;90.80;;;;;;5017662;28;20460;-79
2023/09/25 12:17:32;;;;;;;1.93;1.83;;;27.50;90.10;;;;;;5018288;28;20443;-80
2023/09/25 12:20:05;;;;;;;3.27;2.03;;;27.60;88.70;;;;;;5020144;28;20447;-80
2023/09/25 12:22:32;;;;;;;2.10;1.90;;;27.80;87.50;;;;;;5020682;28;20483;-79
2023/09/25 12:24:59;;;;;;;2.13;2.03;;;27.60;88.30;;;;;;5019705;28;20474;-79
2023/09/25 12:27:25;;;;;;;2.30;2.10;;;27.40;88.70;;;;;;5019884;28;20939;-80
2023/09/25 12:29:52;;;;;;;2.47;2.27;;;26.70;89.00;;;;;;5016816;28;20448;-79
2023/09/25 12:32:19;;;;;;;2.80;2.20;;;27.00;88.80;;;;;;5016241;28;20444;-79
2023/09/25 12:34:45;;;;;;;2.40;2.10;;;26.60;88.40;;;;;;5016877;28;20459;-79
2023/09/25 12:37:13;;;;;;;2.40;2.20;;;26.30;89.80;;;;;;5016663;28;20436;-79
2023/09/25 12:39:40;;;;;;;2.10;1.93;;;26.90;87.40;;;;;;5015947;28;20814;-80
2023/09/25 12:42:07;;;;;;;2.63;1.77;;;27.10;85.40;;;;;;5016037;28;20479;-80
2023/09/25 12:44:34;;;;;;;2.03;1.93;;;27.20;86.10;;;;;;5015800;28;20463;-79
2023/09/25 12:47:00;;;;;;;2.20;2.00;;;27.40;84.60;;;;;;5015948;28;20483;-80
2023/09/25 12:49:27;;;;;;;2.07;1.97;;;27.70;83.30;;;;;;5016274;28;20443;-80
2023/09/25 12:51:54;;;;;;;2.07;1.77;;;27.80;83.30;;;;;;5016348;28;20833;-81
2023/09/25 12:54:22;;;;;;;1.97;1.87;;;27.80;83.60;;;;;;5016418;28;20435;-80
2023/09/25 12:56:49;;;;;;;2.03;1.83;;;27.70;82.10;;;;;;5015926;28;20455;-80
2023/09/25 12:59:16;;;;;;;1.80;1.70;;;27.80;84.00;;;;;;5016809;28;20498;-79
2023/09/25 13:01:43;;;;;;;2.13;2.03;;;28.00;83.10;;;;;;5016317;28;20448;-79
2023/09/25 13:04:09;;;;;;;3.53;1.70;;;28.80;81.00;;;;;;5015952;28;20447;-79
2023/09/25 13:06:36;;;;;;;1.67;1.57;;;28.60;79.70;;;;;;5016127;28;20490;-79
2023/09/25 13:09:03;;;;;;;1.97;1.87;;;28.50;80.40;;;;;;5016597;28;20470;-80
2023/09/25 13:11:36;;;;;;;1.60;1.50;;;28.20;78.50;;;;;;5017988;28;20452;-79
2023/09/25 13:14:04;;;;;;;1.83;1.73;;;28.60;78.00;;;;;;5017008;28;20450;-80
2023/09/25 13:16:32;;;;;;;1.83;1.73;;;29.00;76.30;;;;;;5016401;28;20521;-79
2023/09/25 13:18:59;;;;;;;2.07;1.87;;;29.10;75.80;;;;;;5016247;28;20451;-81
2023/09/25 13:21:26;;;;;;;1.77;1.67;;;27.90;76.80;;;;;;5015465;28;20452;-80
2023/09/25 13:23:55;;;;;;;2.30;2.10;;;26.90;79.50;;;;;;5016518;28;20451;-80
2023/09/25 13:26:22;;;;;;;1.90;1.47;;;26.80;79.20;;;;;;5016510;28;20557;-81
2023/09/25 13:28:50;;;;;;;1.93;1.80;;;27.20;79.90;;;;;;5016809;28;20475;-80
2023/09/25 13:31:17;;;;;;;1.90;1.57;;;28.00;79.10;;;;;;5017946;28;20487;-81
2023/09/25 13:33:44;;;;;;;1.97;1.87;;;28.60;76.30;;;;;;5016276;28;20448;-80